Pagrindinis puslapis
METAR-TAF:

METAR-TAF

Oro uostai :

Karakasas, Venesuela

platuma: 10-36N, ilguma: 066-59W, Aukštis: 43 m

Dabartinis oras

Ataskaita buvo paskelbta 46 minutes, ne 16:03 UTC
Vėjas 13 kt iš Rytų
Temperatūra 28°C
Drėgmė 70%
Slėgis 1017 hPa

METAR: SVMI 271603Z AUTO 08013KT NCD 28/22 Q1017

Laikas: 12:49 (16:49 UTC)

Prognozė

Ataskaita buvo paskelbta 6 valandos ir 49 minutes, ne 10:00 UTC
Prognozė galioja nuo 27 metu 12 UTC su 28 metu 12 UTC
Vėjas 11 kt iš Rytų
Matomumas 10 km arba daugiau
Mažai debesys ne aukštis 1600 ft
Tapsmas
nuo 27 metu 16 UTC su 27 metu 22 UTC
Vėjas 2 kt iš Rytų/Šiaurės Rytų
Mažai debesys ne aukštis 1600 ft
Išsisklaidę debesys ne aukštis 8000 ft

TAF: SVMI 271000Z 2712/2812 08011KT 9999 FEW016 TX34/2718Z TN22/2808Z BECMG 2716/2722 07002KT FEW016 SCT080

Orai ataskaitas ir orų prognozės (METAR, TAF).

turimą stotys yra geltonos ir raudonos taškus žemėlapyje.

Perkelti pele per norėdami pamatyti stoties vardą.

Tada spustelėkite, norėdami matyti oro stebėjimo ir prognozės.

Norėdami pakeisti žemėlapį: spustelėkite ant žalios mygtukų su juodo kryžiaus žemyn,; žalią mygtuką su brūkšneliu, jei norite nutolinti; arba žalių rodyklių gretimoms žemėlapius.


METAR-TAF: